createdAt,value
2019-01-12T00:01:38.040Z,3.83
2019-01-12T00:06:42.589Z,4.03
2019-01-12T00:11:50.202Z,3.60
2019-01-12T00:16:55.118Z,3.30
2019-01-12T00:21:59.661Z,3.43
2019-01-12T00:27:04.917Z,3.37
2019-01-12T00:32:12.143Z,3.13
2019-01-12T00:37:16.965Z,3.40
2019-01-12T00:42:23.109Z,3.63
2019-01-12T00:47:28.159Z,3.63
2019-01-12T00:52:34.517Z,3.17
2019-01-12T00:57:39.057Z,3.10
2019-01-12T01:02:43.476Z,3.47
2019-01-12T01:07:48.485Z,3.30
2019-01-12T01:12:57.009Z,3.10
2019-01-12T01:18:02.047Z,3.03
2019-01-12T01:23:06.511Z,3.00
2019-01-12T01:28:13.291Z,2.70
2019-01-12T01:33:18.156Z,3.13
2019-01-12T01:38:22.897Z,3.23
2019-01-12T01:43:28.919Z,2.70
2019-01-12T01:48:33.570Z,3.30
2019-01-12T01:53:38.957Z,3.53
2019-01-12T01:58:45.058Z,3.83
2019-01-12T02:03:50.206Z,3.30
2019-01-12T02:08:56.399Z,3.40
2019-01-12T02:14:03.155Z,3.10
2019-01-12T02:19:08.322Z,3.57
2019-01-12T02:24:13.384Z,3.33
2019-01-12T02:29:21.255Z,3.30
2019-01-12T02:34:26.698Z,4.00
2019-01-12T02:39:33.865Z,3.60
2019-01-12T02:44:40.629Z,3.65
2019-01-12T02:49:47.887Z,3.43
2019-01-12T02:54:52.400Z,3.50
2019-01-12T02:59:57.143Z,3.50
2019-01-12T03:05:02.733Z,3.37
2019-01-12T03:10:09.762Z,3.13
2019-01-12T03:15:16.633Z,3.20
2019-01-12T03:20:22.792Z,3.00
2019-01-12T03:25:29.171Z,3.13
2019-01-12T03:30:36.399Z,3.17
2019-01-12T03:35:40.704Z,3.17
2019-01-12T03:40:45.221Z,2.55
2019-01-12T03:45:50.841Z,2.67
2019-01-12T03:50:55.453Z,2.87
2019-01-12T03:56:00.770Z,2.63
2019-01-12T04:01:05.615Z,2.87
2019-01-12T04:06:10.270Z,3.30
2019-01-12T04:11:15.015Z,3.60
2019-01-12T04:16:22.495Z,3.17
2019-01-12T04:21:27.169Z,2.73
2019-01-12T04:26:31.804Z,3.20
2019-01-12T04:31:36.919Z,3.13
2019-01-12T04:36:45.591Z,2.63
2019-01-12T04:41:50.767Z,3.00
2019-01-12T04:46:56.313Z,2.87
2019-01-12T04:52:03.415Z,2.33
2019-01-12T04:57:07.913Z,2.63
2019-01-12T05:02:12.552Z,2.17
2019-01-12T05:07:22.026Z,2.53
2019-01-12T05:12:31.991Z,2.00
2019-01-12T05:17:36.517Z,2.10
2019-01-12T05:22:41.763Z,2.13
2019-01-12T05:27:46.774Z,2.63
2019-01-12T05:32:51.960Z,2.33
2019-01-12T05:37:56.332Z,1.97
2019-01-12T05:43:01.646Z,2.13
2019-01-12T05:48:10.110Z,2.25
2019-01-12T05:53:16.876Z,2.27
2019-01-12T05:58:21.604Z,2.10
2019-01-12T06:03:26.683Z,2.40
2019-01-12T06:08:34.492Z,2.27
2019-01-12T06:13:39.075Z,2.50
2019-01-12T06:18:49.034Z,2.20
2019-01-12T06:23:53.825Z,2.23
2019-01-12T06:28:59.492Z,2.03
2019-01-12T06:34:05.656Z,1.97
2019-01-12T06:39:10.928Z,1.83
2019-01-12T06:44:16.074Z,2.10
2019-01-12T06:49:21.641Z,1.73
2019-01-12T06:54:26.435Z,2.17
2019-01-12T06:59:32.461Z,1.83
2019-01-12T07:04:37.240Z,2.00
2019-01-12T07:09:42.618Z,1.80
2019-01-12T07:14:47.764Z,4.70
2019-01-12T07:19:52.854Z,2.83
2019-01-12T07:24:57.921Z,2.80
2019-01-12T07:30:03.537Z,2.20
2019-01-12T07:35:08.367Z,2.03
2019-01-12T07:40:13.508Z,2.33
2019-01-12T07:45:18.749Z,1.97
2019-01-12T07:50:23.626Z,3.30
2019-01-12T07:55:29.203Z,2.73
2019-01-12T08:00:34.136Z,2.07
2019-01-12T08:05:39.020Z,2.50
2019-01-12T08:10:43.564Z,1.90
2019-01-12T08:15:49.179Z,2.40
2019-01-12T08:20:54.058Z,1.70
2019-01-12T08:25:59.605Z,2.42
2019-01-12T08:31:05.314Z,1.70
2019-01-12T08:36:10.847Z,1.70
2019-01-12T08:41:19.575Z,1.63
2019-01-12T08:46:26.449Z,1.90
2019-01-12T08:51:31.407Z,1.50
2019-01-12T08:56:38.436Z,1.90
2019-01-12T09:01:43.429Z,1.70
2019-01-12T09:06:49.124Z,1.70
2019-01-12T09:11:53.912Z,2.17
2019-01-12T09:16:58.769Z,2.43
2019-01-12T09:22:04.497Z,3.20
2019-01-12T09:27:09.327Z,2.87
2019-01-12T09:32:14.587Z,2.60
2019-01-12T09:37:19.262Z,2.77
2019-01-12T09:42:23.702Z,2.10
2019-01-12T09:47:29.931Z,4.63
2019-01-12T09:52:34.429Z,2.50
2019-01-12T09:57:39.210Z,3.30
2019-01-12T10:02:43.840Z,3.20
2019-01-12T10:07:48.657Z,2.13
2019-01-12T10:12:56.970Z,2.27
2019-01-12T10:18:01.992Z,1.37
2019-01-12T10:23:06.738Z,1.43
2019-01-12T10:28:13.031Z,1.73
2019-01-12T10:33:17.889Z,1.35
2019-01-12T10:38:23.257Z,1.40
2019-01-12T10:43:28.356Z,1.37
2019-01-12T10:48:34.194Z,1.20
2019-01-12T10:53:38.577Z,1.67
2019-01-12T10:58:43.178Z,2.10
2019-01-12T11:03:48.056Z,2.00
2019-01-12T11:08:52.706Z,2.00
2019-01-12T11:13:57.732Z,1.90
2019-01-12T11:19:02.401Z,1.97
2019-01-12T11:24:07.271Z,2.13
2019-01-12T11:29:11.889Z,2.67
2019-01-12T11:34:16.889Z,3.60
2019-01-12T11:39:21.839Z,2.57
2019-01-12T11:44:27.097Z,2.13
2019-01-12T11:49:31.785Z,1.97
2019-01-12T11:54:36.856Z,2.40
2019-01-12T11:59:41.411Z,2.20
2019-01-12T12:04:46.284Z,2.20
2019-01-12T12:09:50.788Z,2.95
2019-01-12T12:14:55.503Z,3.13
2019-01-12T12:20:00.221Z,3.47
2019-01-12T12:25:05.368Z,2.57
2019-01-12T12:30:19.290Z,2.23
2019-01-12T12:35:24.022Z,2.40
2019-01-12T12:40:28.949Z,2.37
2019-01-12T12:45:35.473Z,2.33
2019-01-12T12:50:40.202Z,1.87
2019-01-12T12:55:45.673Z,1.80
2019-01-12T13:00:50.906Z,1.67
2019-01-12T13:05:55.788Z,1.63
2019-01-12T13:11:00.598Z,1.67
2019-01-12T13:16:05.196Z,1.70
2019-01-12T13:21:10.588Z,1.47
2019-01-12T13:26:15.527Z,1.50
2019-01-12T13:31:20.191Z,1.40
2019-01-12T13:36:25.457Z,1.67
2019-01-12T13:41:33.609Z,1.63
2019-01-12T13:46:39.891Z,3.37
2019-01-12T13:51:45.451Z,1.57
2019-01-12T13:56:52.327Z,1.40
2019-01-12T14:01:56.681Z,1.70
2019-01-12T14:07:04.150Z,2.57
2019-01-12T14:12:08.850Z,2.10
2019-01-12T14:17:13.652Z,1.70
2019-01-12T14:22:18.670Z,2.20
2019-01-12T14:27:23.710Z,1.70
2019-01-12T14:32:28.394Z,1.77
2019-01-12T14:37:33.236Z,1.60
2019-01-12T14:42:39.099Z,1.77
2019-01-12T14:47:44.934Z,1.93
2019-01-12T14:52:49.627Z,1.83
2019-01-12T14:58:01.945Z,1.60
2019-01-12T15:03:02.236Z,1.40
2019-01-12T15:08:06.496Z,1.80
2019-01-12T15:13:11.338Z,1.53
2019-01-12T15:18:16.323Z,1.60
2019-01-12T15:23:21.503Z,1.53
2019-01-12T15:28:26.282Z,1.70
2019-01-12T15:33:31.580Z,1.83
2019-01-12T15:38:36.066Z,1.83
2019-01-12T15:43:41.612Z,1.70
2019-01-12T15:48:48.775Z,2.13
2019-01-12T15:53:53.484Z,1.70
2019-01-12T15:59:00.270Z,2.07
2019-01-12T16:04:07.512Z,2.00
2019-01-12T16:09:12.298Z,2.17
2019-01-12T16:14:18.762Z,4.60
2019-01-12T16:19:23.354Z,3.13
2019-01-12T16:24:28.051Z,5.73
2019-01-12T16:29:32.937Z,3.65
2019-01-12T16:34:42.045Z,2.50
2019-01-12T16:39:47.003Z,2.50
2019-01-12T16:44:51.746Z,2.63
2019-01-12T16:49:56.203Z,2.37
2019-01-12T16:55:01.496Z,2.55
2019-01-12T17:00:09.302Z,2.50
2019-01-12T17:05:13.887Z,2.40
2019-01-12T17:10:20.094Z,3.10
2019-01-12T17:15:26.539Z,2.10
2019-01-12T17:20:31.335Z,2.00
2019-01-12T17:25:38.197Z,2.10
2019-01-12T17:30:42.755Z,1.97
2019-01-12T17:35:48.618Z,2.33
2019-01-12T17:40:53.051Z,1.50
2019-01-12T17:45:57.784Z,1.60
2019-01-12T17:51:02.655Z,1.50
2019-01-12T17:56:07.357Z,1.70
2019-01-12T18:01:15.387Z,3.50
2019-01-12T18:06:20.387Z,2.17
2019-01-12T18:11:25.130Z,2.00
2019-01-12T18:16:33.251Z,1.83
2019-01-12T18:21:37.918Z,1.87
2019-01-12T18:26:42.912Z,1.70
2019-01-12T18:31:47.895Z,1.50
2019-01-12T18:36:52.533Z,8.43
2019-01-12T18:41:58.530Z,3.10
2019-01-12T18:47:03.972Z,2.43
2019-01-12T18:52:08.718Z,1.90
2019-01-12T18:57:13.470Z,2.40
2019-01-12T19:02:19.836Z,4.20
2019-01-12T19:07:24.496Z,2.00
2019-01-12T19:12:30.220Z,2.15
2019-01-12T19:17:35.366Z,2.00
2019-01-12T19:22:40.166Z,2.20
2019-01-12T19:27:45.796Z,1.73
2019-01-12T19:32:50.129Z,2.17
2019-01-12T19:37:54.990Z,2.00
2019-01-12T19:43:01.371Z,1.80
2019-01-12T19:48:05.906Z,1.80
2019-01-12T19:53:10.525Z,1.90
2019-01-12T19:58:17.484Z,1.87
2019-01-12T20:03:22.663Z,2.13
2019-01-12T20:08:27.313Z,2.13
2019-01-12T20:13:32.384Z,2.30
2019-01-12T20:18:37.237Z,2.77
2019-01-12T20:23:41.599Z,1.87
2019-01-12T20:28:47.314Z,6.60
2019-01-12T20:34:05.485Z,2.03
2019-01-12T20:39:18.185Z,1.83
2019-01-12T20:45:05.491Z,1.87
2019-01-12T20:50:25.050Z,1.97
2019-01-12T20:56:04.312Z,1.40
2019-01-12T21:01:34.374Z,1.23
2019-01-12T21:07:09.989Z,1.33
2019-01-12T21:12:44.745Z,1.20
2019-01-12T21:17:51.359Z,1.10
2019-01-12T21:22:56.381Z,1.10
2019-01-12T21:28:01.415Z,0.90
2019-01-12T21:33:06.046Z,1.00
2019-01-12T21:38:10.778Z,1.00
2019-01-12T21:43:17.143Z,0.83
2019-01-12T21:48:22.003Z,0.90
2019-01-12T21:53:26.251Z,1.00
2019-01-12T21:58:31.900Z,0.78
2019-01-12T22:03:38.631Z,0.60
2019-01-12T22:08:45.811Z,0.80
2019-01-12T22:13:51.665Z,0.70
2019-01-12T22:18:57.880Z,0.73
2019-01-12T22:24:02.252Z,0.67
2019-01-12T22:29:06.961Z,0.70
2019-01-12T22:34:11.589Z,0.60
2019-01-12T22:39:16.488Z,0.70
2019-01-12T22:44:21.827Z,0.60
2019-01-12T22:49:26.389Z,0.60
2019-01-12T22:54:31.079Z,0.70
2019-01-12T22:59:35.812Z,0.63
2019-01-12T23:04:40.830Z,0.60
2019-01-12T23:09:45.700Z,0.50
2019-01-12T23:14:52.319Z,0.50
2019-01-12T23:19:57.086Z,0.57
2019-01-12T23:25:05.200Z,0.60
2019-01-12T23:30:11.416Z,0.50
2019-01-12T23:35:16.214Z,0.70
2019-01-12T23:40:21.979Z,0.43
2019-01-12T23:45:27.001Z,0.70
2019-01-12T23:50:31.955Z,0.60
2019-01-12T23:55:36.438Z,0.50
